sensor_id;sensor_type;location;lat;lon;timestamp;P1;durP1;ratioP1;P2;durP2;ratioP2
17451;SDS011;8843;48.838;9.324;2022-10-12T00:00:20;16.00;;;8.83;;
17451;SDS011;8843;48.838;9.324;2022-10-12T00:02:47;12.70;;;8.37;;
17451;SDS011;8843;48.838;9.324;2022-10-12T00:05:14;11.47;;;8.23;;
17451;SDS011;8843;48.838;9.324;2022-10-12T00:07:41;9.37;;;8.13;;
17451;SDS011;8843;48.838;9.324;2022-10-12T00:10:08;10.90;;;7.63;;
17451;SDS011;8843;48.838;9.324;2022-10-12T00:12:35;13.20;;;8.63;;
17451;SDS011;8843;48.838;9.324;2022-10-12T00:15:02;10.07;;;8.50;;
17451;SDS011;8843;48.838;9.324;2022-10-12T00:17:31;12.53;;;8.00;;
17451;SDS011;8843;48.838;9.324;2022-10-12T00:19:57;13.37;;;8.10;;
17451;SDS011;8843;48.838;9.324;2022-10-12T00:22:24;12.07;;;8.00;;
17451;SDS011;8843;48.838;9.324;2022-10-12T00:24:51;9.50;;;7.17;;
17451;SDS011;8843;48.838;9.324;2022-10-12T00:27:18;9.97;;;8.07;;
17451;SDS011;8843;48.838;9.324;2022-10-12T00:29:46;11.23;;;8.10;;
17451;SDS011;8843;48.838;9.324;2022-10-12T00:32:12;11.83;;;8.17;;
17451;SDS011;8843;48.838;9.324;2022-10-12T00:34:41;10.67;;;7.30;;
17451;SDS011;8843;48.838;9.324;2022-10-12T00:37:08;11.57;;;7.40;;
17451;SDS011;8843;48.838;9.324;2022-10-12T00:39:35;10.00;;;7.47;;
17451;SDS011;8843;48.838;9.324;2022-10-12T00:42:02;13.07;;;8.30;;
17451;SDS011;8843;48.838;9.324;2022-10-12T00:44:33;11.80;;;8.57;;
17451;SDS011;8843;48.838;9.324;2022-10-12T00:47:02;11.30;;;7.53;;
17451;SDS011;8843;48.838;9.324;2022-10-12T00:49:33;11.47;;;7.97;;
17451;SDS011;8843;48.838;9.324;2022-10-12T00:52:03;9.77;;;7.20;;
17451;SDS011;8843;48.838;9.324;2022-10-12T00:54:35;11.20;;;8.03;;
17451;SDS011;8843;48.838;9.324;2022-10-12T00:57:09;17.70;;;8.03;;
17451;SDS011;8843;48.838;9.324;2022-10-12T00:59:39;9.47;;;8.13;;
17451;SDS011;8843;48.838;9.324;2022-10-12T01:02:11;11.77;;;8.13;;
17451;SDS011;8843;48.838;9.324;2022-10-12T01:04:38;9.83;;;7.50;;
17451;SDS011;8843;48.838;9.324;2022-10-12T01:07:07;9.57;;;7.43;;
17451;SDS011;8843;48.838;9.324;2022-10-12T01:09:34;15.00;;;7.97;;
17451;SDS011;8843;48.838;9.324;2022-10-12T01:12:02;10.10;;;6.73;;
17451;SDS011;8843;48.838;9.324;2022-10-12T01:14:30;14.23;;;7.63;;
17451;SDS011;8843;48.838;9.324;2022-10-12T01:16:58;11.70;;;7.93;;
17451;SDS011;8843;48.838;9.324;2022-10-12T01:19:37;12.60;;;7.37;;
17451;SDS011;8843;48.838;9.324;2022-10-12T01:22:20;11.47;;;7.23;;
17451;SDS011;8843;48.838;9.324;2022-10-12T01:24:51;9.17;;;7.57;;
17451;SDS011;8843;48.838;9.324;2022-10-12T01:30:09;10.77;;;7.10;;
17451;SDS011;8843;48.838;9.324;2022-10-12T01:32:51;10.83;;;8.40;;
17451;SDS011;8843;48.838;9.324;2022-10-12T01:35:35;9.47;;;7.10;;
17451;SDS011;8843;48.838;9.324;2022-10-12T01:38:08;13.20;;;8.47;;
17451;SDS011;8843;48.838;9.324;2022-10-12T01:40:45;10.60;;;8.17;;
17451;SDS011;8843;48.838;9.324;2022-10-12T01:43:19;11.70;;;7.77;;
17451;SDS011;8843;48.838;9.324;2022-10-12T01:45:49;12.97;;;7.53;;
17451;SDS011;8843;48.838;9.324;2022-10-12T01:48:16;10.53;;;6.83;;
17451;SDS011;8843;48.838;9.324;2022-10-12T01:50:47;11.43;;;7.33;;
17451;SDS011;8843;48.838;9.324;2022-10-12T01:53:25;9.30;;;6.83;;
17451;SDS011;8843;48.838;9.324;2022-10-12T01:56:00;9.53;;;6.90;;
17451;SDS011;8843;48.838;9.324;2022-10-12T01:58:39;9.27;;;7.23;;
17451;SDS011;8843;48.838;9.324;2022-10-12T02:01:18;8.43;;;7.63;;
17451;SDS011;8843;48.838;9.324;2022-10-12T02:03:53;9.73;;;7.17;;
17451;SDS011;8843;48.838;9.324;2022-10-12T02:06:26;8.90;;;6.97;;
17451;SDS011;8843;48.838;9.324;2022-10-12T02:08:58;8.90;;;7.20;;
17451;SDS011;8843;48.838;9.324;2022-10-12T02:11:29;10.50;;;7.43;;
17451;SDS011;8843;48.838;9.324;2022-10-12T02:14:00;12.97;;;7.70;;
17451;SDS011;8843;48.838;9.324;2022-10-12T02:16:36;15.97;;;7.57;;
17451;SDS011;8843;48.838;9.324;2022-10-12T02:19:06;8.30;;;6.63;;
17451;SDS011;8843;48.838;9.324;2022-10-12T02:21:37;10.90;;;8.27;;
17451;SDS011;8843;48.838;9.324;2022-10-12T02:24:06;11.23;;;6.53;;
17451;SDS011;8843;48.838;9.324;2022-10-12T02:26:35;7.30;;;6.53;;
17451;SDS011;8843;48.838;9.324;2022-10-12T02:29:05;7.10;;;6.40;;
17451;SDS011;8843;48.838;9.324;2022-10-12T02:31:36;8.60;;;6.70;;
17451;SDS011;8843;48.838;9.324;2022-10-12T02:34:12;12.47;;;7.30;;
17451;SDS011;8843;48.838;9.324;2022-10-12T02:36:45;8.63;;;6.50;;
17451;SDS011;8843;48.838;9.324;2022-10-12T02:39:16;10.07;;;6.33;;
17451;SDS011;8843;48.838;9.324;2022-10-12T02:41:49;10.73;;;7.23;;
17451;SDS011;8843;48.838;9.324;2022-10-12T02:44:18;8.57;;;5.97;;
17451;SDS011;8843;48.838;9.324;2022-10-12T02:46:50;10.97;;;7.50;;
17451;SDS011;8843;48.838;9.324;2022-10-12T02:49:18;11.57;;;7.13;;
17451;SDS011;8843;48.838;9.324;2022-10-12T02:51:47;9.67;;;6.57;;
17451;SDS011;8843;48.838;9.324;2022-10-12T02:54:15;12.27;;;8.17;;
17451;SDS011;8843;48.838;9.324;2022-10-12T02:56:42;11.77;;;7.10;;
17451;SDS011;8843;48.838;9.324;2022-10-12T02:59:10;9.87;;;7.03;;
17451;SDS011;8843;48.838;9.324;2022-10-12T03:01:37;12.43;;;7.93;;
17451;SDS011;8843;48.838;9.324;2022-10-12T03:04:05;13.30;;;8.33;;
17451;SDS011;8843;48.838;9.324;2022-10-12T03:06:33;12.40;;;8.23;;
17451;SDS011;8843;48.838;9.324;2022-10-12T03:09:00;10.80;;;7.80;;
17451;SDS011;8843;48.838;9.324;2022-10-12T03:11:27;9.13;;;7.63;;
17451;SDS011;8843;48.838;9.324;2022-10-12T03:13:54;12.47;;;7.80;;
17451;SDS011;8843;48.838;9.324;2022-10-12T03:16:21;9.93;;;8.07;;
17451;SDS011;8843;48.838;9.324;2022-10-12T03:18:49;9.50;;;7.17;;
17451;SDS011;8843;48.838;9.324;2022-10-12T03:21:18;8.83;;;7.43;;
17451;SDS011;8843;48.838;9.324;2022-10-12T03:23:44;9.20;;;8.30;;
17451;SDS011;8843;48.838;9.324;2022-10-12T03:26:11;12.23;;;8.70;;
17451;SDS011;8843;48.838;9.324;2022-10-12T03:28:38;11.07;;;8.20;;
17451;SDS011;8843;48.838;9.324;2022-10-12T03:31:05;7.87;;;6.53;;
17451;SDS011;8843;48.838;9.324;2022-10-12T03:33:32;12.47;;;7.43;;
17451;SDS011;8843;48.838;9.324;2022-10-12T03:35:59;11.43;;;7.40;;
17451;SDS011;8843;48.838;9.324;2022-10-12T03:38:27;10.20;;;7.17;;
17451;SDS011;8843;48.838;9.324;2022-10-12T03:40:54;8.93;;;6.87;;
17451;SDS011;8843;48.838;9.324;2022-10-12T03:43:21;10.33;;;8.23;;
17451;SDS011;8843;48.838;9.324;2022-10-12T03:45:48;12.37;;;8.47;;
17451;SDS011;8843;48.838;9.324;2022-10-12T03:48:16;9.37;;;7.53;;
17451;SDS011;8843;48.838;9.324;2022-10-12T03:50:46;10.47;;;7.73;;
17451;SDS011;8843;48.838;9.324;2022-10-12T03:53:13;10.70;;;7.00;;
17451;SDS011;8843;48.838;9.324;2022-10-12T03:55:41;13.60;;;8.53;;
17451;SDS011;8843;48.838;9.324;2022-10-12T03:58:08;9.60;;;8.23;;
17451;SDS011;8843;48.838;9.324;2022-10-12T04:00:36;8.63;;;7.43;;
17451;SDS011;8843;48.838;9.324;2022-10-12T04:03:03;12.03;;;8.27;;
17451;SDS011;8843;48.838;9.324;2022-10-12T04:05:30;10.57;;;7.40;;
17451;SDS011;8843;48.838;9.324;2022-10-12T04:07:57;9.77;;;7.40;;
17451;SDS011;8843;48.838;9.324;2022-10-12T04:10:24;11.93;;;7.70;;
17451;SDS011;8843;48.838;9.324;2022-10-12T04:12:52;9.67;;;6.90;;
17451;SDS011;8843;48.838;9.324;2022-10-12T04:15:19;10.80;;;7.70;;
17451;SDS011;8843;48.838;9.324;2022-10-12T04:17:46;11.80;;;7.50;;
17451;SDS011;8843;48.838;9.324;2022-10-12T04:20:13;10.50;;;7.57;;
17451;SDS011;8843;48.838;9.324;2022-10-12T04:22:40;12.07;;;7.03;;
17451;SDS011;8843;48.838;9.324;2022-10-12T04:25:08;14.50;;;8.20;;
17451;SDS011;8843;48.838;9.324;2022-10-12T04:27:35;9.20;;;7.53;;
17451;SDS011;8843;48.838;9.324;2022-10-12T04:30:04;10.23;;;7.63;;
17451;SDS011;8843;48.838;9.324;2022-10-12T04:32:32;11.63;;;8.33;;
17451;SDS011;8843;48.838;9.324;2022-10-12T04:34:58;10.20;;;6.60;;
17451;SDS011;8843;48.838;9.324;2022-10-12T04:37:25;15.60;;;8.30;;
17451;SDS011;8843;48.838;9.324;2022-10-12T04:39:52;11.57;;;7.63;;
17451;SDS011;8843;48.838;9.324;2022-10-12T04:42:19;10.50;;;8.47;;
17451;SDS011;8843;48.838;9.324;2022-10-12T04:44:46;9.17;;;7.00;;
17451;SDS011;8843;48.838;9.324;2022-10-12T04:47:15;11.37;;;6.20;;
17451;SDS011;8843;48.838;9.324;2022-10-12T04:49:42;9.27;;;7.90;;
17451;SDS011;8843;48.838;9.324;2022-10-12T04:52:08;9.23;;;7.10;;
17451;SDS011;8843;48.838;9.324;2022-10-12T04:54:35;9.77;;;7.17;;
17451;SDS011;8843;48.838;9.324;2022-10-12T04:57:02;10.30;;;6.77;;
17451;SDS011;8843;48.838;9.324;2022-10-12T04:59:29;8.57;;;6.73;;
17451;SDS011;8843;48.838;9.324;2022-10-12T05:01:56;8.00;;;7.03;;
17451;SDS011;8843;48.838;9.324;2022-10-12T05:04:24;7.70;;;6.53;;
17451;SDS011;8843;48.838;9.324;2022-10-12T05:06:51;7.53;;;6.63;;
17451;SDS011;8843;48.838;9.324;2022-10-12T05:09:18;9.23;;;6.97;;
17451;SDS011;8843;48.838;9.324;2022-10-12T05:11:45;9.40;;;7.10;;
17451;SDS011;8843;48.838;9.324;2022-10-12T05:14:12;7.43;;;6.60;;
17451;SDS011;8843;48.838;9.324;2022-10-12T05:16:39;8.43;;;6.70;;
17451;SDS011;8843;48.838;9.324;2022-10-12T05:19:06;8.13;;;7.13;;
17451;SDS011;8843;48.838;9.324;2022-10-12T05:21:34;8.10;;;7.27;;
17451;SDS011;8843;48.838;9.324;2022-10-12T05:24:03;7.90;;;6.67;;
17451;SDS011;8843;48.838;9.324;2022-10-12T05:26:30;9.33;;;7.37;;
17451;SDS011;8843;48.838;9.324;2022-10-12T05:28:57;9.43;;;7.37;;
17451;SDS011;8843;48.838;9.324;2022-10-12T05:31:24;8.93;;;7.43;;
17451;SDS011;8843;48.838;9.324;2022-10-12T05:33:51;8.17;;;6.77;;
17451;SDS011;8843;48.838;9.324;2022-10-12T05:36:18;9.97;;;6.80;;
17451;SDS011;8843;48.838;9.324;2022-10-12T05:38:46;6.93;;;5.87;;
17451;SDS011;8843;48.838;9.324;2022-10-12T05:41:13;13.40;;;7.23;;
17451;SDS011;8843;48.838;9.324;2022-10-12T05:43:40;7.17;;;6.30;;
17451;SDS011;8843;48.838;9.324;2022-10-12T05:46:07;8.60;;;7.70;;
17451;SDS011;8843;48.838;9.324;2022-10-12T05:48:34;10.17;;;7.77;;
17451;SDS011;8843;48.838;9.324;2022-10-12T05:51:00;11.40;;;8.47;;
17451;SDS011;8843;48.838;9.324;2022-10-12T05:53:27;10.50;;;8.20;;
17451;SDS011;8843;48.838;9.324;2022-10-12T05:55:57;8.80;;;7.40;;
17451;SDS011;8843;48.838;9.324;2022-10-12T05:58:25;13.93;;;8.77;;
17451;SDS011;8843;48.838;9.324;2022-10-12T06:00:54;11.43;;;9.37;;
17451;SDS011;8843;48.838;9.324;2022-10-12T06:03:28;12.03;;;8.73;;
17451;SDS011;8843;48.838;9.324;2022-10-12T06:05:55;13.40;;;9.73;;
17451;SDS011;8843;48.838;9.324;2022-10-12T06:08:22;11.60;;;8.77;;
17451;SDS011;8843;48.838;9.324;2022-10-12T06:10:49;13.43;;;9.33;;
17451;SDS011;8843;48.838;9.324;2022-10-12T06:13:18;10.57;;;8.87;;
17451;SDS011;8843;48.838;9.324;2022-10-12T06:15:45;11.33;;;8.47;;
17451;SDS011;8843;48.838;9.324;2022-10-12T06:18:13;11.60;;;8.53;;
17451;SDS011;8843;48.838;9.324;2022-10-12T06:20:40;11.83;;;7.83;;
17451;SDS011;8843;48.838;9.324;2022-10-12T06:23:12;13.30;;;8.70;;
17451;SDS011;8843;48.838;9.324;2022-10-12T06:25:39;13.53;;;7.67;;
17451;SDS011;8843;48.838;9.324;2022-10-12T06:28:06;11.03;;;8.27;;
17451;SDS011;8843;48.838;9.324;2022-10-12T06:30:34;10.00;;;7.73;;
17451;SDS011;8843;48.838;9.324;2022-10-12T06:33:01;11.90;;;8.23;;
17451;SDS011;8843;48.838;9.324;2022-10-12T06:35:28;11.20;;;7.83;;
17451;SDS011;8843;48.838;9.324;2022-10-12T06:37:54;11.43;;;8.30;;
17451;SDS011;8843;48.838;9.324;2022-10-12T06:40:21;7.60;;;6.80;;
17451;SDS011;8843;48.838;9.324;2022-10-12T06:42:49;10.97;;;7.27;;
17451;SDS011;8843;48.838;9.324;2022-10-12T06:45:16;11.60;;;8.83;;
17451;SDS011;8843;48.838;9.324;2022-10-12T06:47:44;11.63;;;8.73;;
17451;SDS011;8843;48.838;9.324;2022-10-12T06:50:11;10.70;;;9.60;;
17451;SDS011;8843;48.838;9.324;2022-10-12T06:52:39;12.90;;;8.40;;
17451;SDS011;8843;48.838;9.324;2022-10-12T06:55:07;12.83;;;8.43;;
17451;SDS011;8843;48.838;9.324;2022-10-12T06:57:35;14.23;;;7.97;;
17451;SDS011;8843;48.838;9.324;2022-10-12T07:00:02;15.00;;;9.27;;
17451;SDS011;8843;48.838;9.324;2022-10-12T07:02:30;13.80;;;8.90;;
17451;SDS011;8843;48.838;9.324;2022-10-12T07:04:58;9.57;;;8.57;;
17451;SDS011;8843;48.838;9.324;2022-10-12T07:07:25;11.20;;;9.17;;
17451;SDS011;8843;48.838;9.324;2022-10-12T07:09:54;13.20;;;9.00;;
17451;SDS011;8843;48.838;9.324;2022-10-12T07:12:21;14.03;;;9.10;;
17451;SDS011;8843;48.838;9.324;2022-10-12T07:14:48;14.33;;;10.07;;
17451;SDS011;8843;48.838;9.324;2022-10-12T07:17:15;15.37;;;9.63;;
17451;SDS011;8843;48.838;9.324;2022-10-12T07:19:42;14.30;;;8.50;;
17451;SDS011;8843;48.838;9.324;2022-10-12T07:22:10;15.70;;;10.40;;
17451;SDS011;8843;48.838;9.324;2022-10-12T07:24:37;14.77;;;9.87;;
17451;SDS011;8843;48.838;9.324;2022-10-12T07:27:05;13.50;;;9.37;;
17451;SDS011;8843;48.838;9.324;2022-10-12T07:29:33;12.00;;;8.93;;
17451;SDS011;8843;48.838;9.324;2022-10-12T07:32:01;11.50;;;8.43;;
17451;SDS011;8843;48.838;9.324;2022-10-12T07:34:28;12.27;;;9.33;;
17451;SDS011;8843;48.838;9.324;2022-10-12T07:36:55;14.20;;;10.60;;
17451;SDS011;8843;48.838;9.324;2022-10-12T07:39:24;13.67;;;10.33;;
17451;SDS011;8843;48.838;9.324;2022-10-12T07:41:51;14.47;;;10.77;;
17451;SDS011;8843;48.838;9.324;2022-10-12T07:44:20;13.63;;;10.47;;
17451;SDS011;8843;48.838;9.324;2022-10-12T07:46:48;13.27;;;9.80;;
17451;SDS011;8843;48.838;9.324;2022-10-12T07:49:15;14.30;;;9.30;;
17451;SDS011;8843;48.838;9.324;2022-10-12T07:51:42;14.77;;;9.53;;
17451;SDS011;8843;48.838;9.324;2022-10-12T07:54:10;13.30;;;10.47;;
17451;SDS011;8843;48.838;9.324;2022-10-12T07:56:39;10.87;;;9.10;;
17451;SDS011;8843;48.838;9.324;2022-10-12T07:59:06;18.90;;;11.57;;
17451;SDS011;8843;48.838;9.324;2022-10-12T08:01:33;17.50;;;11.10;;
17451;SDS011;8843;48.838;9.324;2022-10-12T08:04:00;12.97;;;9.20;;
17451;SDS011;8843;48.838;9.324;2022-10-12T08:06:30;14.50;;;10.33;;
17451;SDS011;8843;48.838;9.324;2022-10-12T08:08:58;13.83;;;11.40;;
17451;SDS011;8843;48.838;9.324;2022-10-12T08:11:25;16.37;;;12.10;;
17451;SDS011;8843;48.838;9.324;2022-10-12T08:13:54;22.13;;;12.63;;
17451;SDS011;8843;48.838;9.324;2022-10-12T08:16:21;17.30;;;13.70;;
17451;SDS011;8843;48.838;9.324;2022-10-12T08:18:48;20.83;;;14.80;;
17451;SDS011;8843;48.838;9.324;2022-10-12T08:21:15;22.20;;;14.57;;
17451;SDS011;8843;48.838;9.324;2022-10-12T08:23:42;16.60;;;12.17;;
17451;SDS011;8843;48.838;9.324;2022-10-12T08:26:10;18.73;;;11.93;;
17451;SDS011;8843;48.838;9.324;2022-10-12T08:28:37;20.13;;;12.57;;
17451;SDS011;8843;48.838;9.324;2022-10-12T08:31:07;19.13;;;12.97;;
17451;SDS011;8843;48.838;9.324;2022-10-12T08:33:35;21.70;;;13.67;;
17451;SDS011;8843;48.838;9.324;2022-10-12T08:36:02;18.53;;;12.60;;
17451;SDS011;8843;48.838;9.324;2022-10-12T08:38:30;20.67;;;14.30;;
17451;SDS011;8843;48.838;9.324;2022-10-12T08:40:59;19.63;;;15.43;;
17451;SDS011;8843;48.838;9.324;2022-10-12T08:43:34;21.20;;;14.77;;
17451;SDS011;8843;48.838;9.324;2022-10-12T08:46:13;19.77;;;14.80;;
17451;SDS011;8843;48.838;9.324;2022-10-12T08:48:45;21.47;;;14.70;;
17451;SDS011;8843;48.838;9.324;2022-10-12T08:51:16;22.53;;;15.67;;
17451;SDS011;8843;48.838;9.324;2022-10-12T08:53:48;20.50;;;15.40;;
17451;SDS011;8843;48.838;9.324;2022-10-12T08:56:19;18.73;;;14.93;;
17451;SDS011;8843;48.838;9.324;2022-10-12T08:58:47;17.57;;;13.63;;
17451;SDS011;8843;48.838;9.324;2022-10-12T09:01:19;20.80;;;14.80;;
17451;SDS011;8843;48.838;9.324;2022-10-12T09:03:52;22.00;;;15.30;;
17451;SDS011;8843;48.838;9.324;2022-10-12T09:06:36;19.50;;;15.80;;
17451;SDS011;8843;48.838;9.324;2022-10-12T09:09:14;20.90;;;15.20;;
17451;SDS011;8843;48.838;9.324;2022-10-12T09:12:04;24.80;;;14.13;;
17451;SDS011;8843;48.838;9.324;2022-10-12T09:14:44;26.10;;;15.83;;
17451;SDS011;8843;48.838;9.324;2022-10-12T09:17:20;21.90;;;15.40;;
17451;SDS011;8843;48.838;9.324;2022-10-12T09:19:52;24.47;;;15.97;;
17451;SDS011;8843;48.838;9.324;2022-10-12T09:22:26;23.03;;;15.10;;
17451;SDS011;8843;48.838;9.324;2022-10-12T09:24:55;25.03;;;15.63;;
17451;SDS011;8843;48.838;9.324;2022-10-12T09:27:23;18.93;;;14.03;;
17451;SDS011;8843;48.838;9.324;2022-10-12T09:29:57;21.70;;;15.10;;
17451;SDS011;8843;48.838;9.324;2022-10-12T09:32:37;21.70;;;14.63;;
17451;SDS011;8843;48.838;9.324;2022-10-12T09:35:09;25.63;;;13.33;;
17451;SDS011;8843;48.838;9.324;2022-10-12T09:37:38;23.73;;;13.30;;
17451;SDS011;8843;48.838;9.324;2022-10-12T09:40:06;21.40;;;14.03;;
17451;SDS011;8843;48.838;9.324;2022-10-12T09:42:44;19.47;;;13.07;;
17451;SDS011;8843;48.838;9.324;2022-10-12T09:45:13;19.50;;;13.97;;
17451;SDS011;8843;48.838;9.324;2022-10-12T09:47:44;21.33;;;12.43;;
17451;SDS011;8843;48.838;9.324;2022-10-12T09:50:39;16.70;;;11.03;;
17451;SDS011;8843;48.838;9.324;2022-10-12T09:53:12;24.90;;;13.63;;
17451;SDS011;8843;48.838;9.324;2022-10-12T09:55:51;17.40;;;12.20;;
17451;SDS011;8843;48.838;9.324;2022-10-12T09:58:19;14.73;;;10.43;;
17451;SDS011;8843;48.838;9.324;2022-10-12T10:03:44;18.30;;;11.00;;
17451;SDS011;8843;48.838;9.324;2022-10-12T10:06:12;16.80;;;11.87;;
17451;SDS011;8843;48.838;9.324;2022-10-12T10:08:40;14.77;;;11.33;;
17451;SDS011;8843;48.838;9.324;2022-10-12T10:11:12;14.73;;;10.93;;
17451;SDS011;8843;48.838;9.324;2022-10-12T10:13:45;16.07;;;10.90;;
17451;SDS011;8843;48.838;9.324;2022-10-12T10:16:14;14.53;;;9.90;;
17451;SDS011;8843;48.838;9.324;2022-10-12T10:18:42;15.53;;;9.43;;
17451;SDS011;8843;48.838;9.324;2022-10-12T10:21:13;14.27;;;9.23;;
17451;SDS011;8843;48.838;9.324;2022-10-12T10:23:48;17.23;;;9.60;;
17451;SDS011;8843;48.838;9.324;2022-10-12T10:26:17;13.33;;;10.10;;
17451;SDS011;8843;48.838;9.324;2022-10-12T10:28:46;13.20;;;10.00;;
17451;SDS011;8843;48.838;9.324;2022-10-12T10:31:15;14.63;;;10.07;;
17451;SDS011;8843;48.838;9.324;2022-10-12T10:36:39;14.50;;;9.87;;
17451;SDS011;8843;48.838;9.324;2022-10-12T10:39:15;11.50;;;8.77;;
17451;SDS011;8843;48.838;9.324;2022-10-12T10:41:44;15.97;;;11.77;;
17451;SDS011;8843;48.838;9.324;2022-10-12T10:44:26;13.80;;;11.23;;
17451;SDS011;8843;48.838;9.324;2022-10-12T10:46:55;15.30;;;11.70;;
17451;SDS011;8843;48.838;9.324;2022-10-12T10:49:29;14.90;;;11.03;;
17451;SDS011;8843;48.838;9.324;2022-10-12T10:52:02;14.53;;;11.07;;
17451;SDS011;8843;48.838;9.324;2022-10-12T10:54:31;15.03;;;11.40;;
17451;SDS011;8843;48.838;9.324;2022-10-12T10:57:01;13.83;;;11.23;;
17451;SDS011;8843;48.838;9.324;2022-10-12T10:59:34;18.10;;;11.57;;
17451;SDS011;8843;48.838;9.324;2022-10-12T11:02:10;15.60;;;10.83;;
17451;SDS011;8843;48.838;9.324;2022-10-12T11:04:48;16.53;;;11.47;;
17451;SDS011;8843;48.838;9.324;2022-10-12T11:07:21;15.50;;;12.23;;
17451;SDS011;8843;48.838;9.324;2022-10-12T11:09:53;13.87;;;10.10;;
17451;SDS011;8843;48.838;9.324;2022-10-12T11:12:23;15.33;;;11.60;;
17451;SDS011;8843;48.838;9.324;2022-10-12T11:14:54;15.47;;;10.60;;
17451;SDS011;8843;48.838;9.324;2022-10-12T11:17:26;15.80;;;10.97;;
17451;SDS011;8843;48.838;9.324;2022-10-12T11:20:00;16.30;;;11.07;;
17451;SDS011;8843;48.838;9.324;2022-10-12T11:22:43;13.93;;;10.50;;
17451;SDS011;8843;48.838;9.324;2022-10-12T11:25:17;17.07;;;11.73;;
17451;SDS011;8843;48.838;9.324;2022-10-12T11:27:49;14.57;;;9.17;;
17451;SDS011;8843;48.838;9.324;2022-10-12T11:30:18;14.90;;;9.23;;
17451;SDS011;8843;48.838;9.324;2022-10-12T11:32:48;16.57;;;10.20;;
17451;SDS011;8843;48.838;9.324;2022-10-12T11:35:22;15.47;;;9.93;;
17451;SDS011;8843;48.838;9.324;2022-10-12T11:37:53;13.33;;;9.33;;
17451;SDS011;8843;48.838;9.324;2022-10-12T11:40:25;13.70;;;8.33;;
17451;SDS011;8843;48.838;9.324;2022-10-12T11:42:56;16.80;;;9.77;;
17451;SDS011;8843;48.838;9.324;2022-10-12T11:45:30;13.57;;;9.17;;
17451;SDS011;8843;48.838;9.324;2022-10-12T11:48:04;12.33;;;8.73;;
17451;SDS011;8843;48.838;9.324;2022-10-12T11:50:37;13.87;;;9.43;;
17451;SDS011;8843;48.838;9.324;2022-10-12T11:53:11;17.30;;;10.00;;
17451;SDS011;8843;48.838;9.324;2022-10-12T11:55:49;13.67;;;9.70;;
17451;SDS011;8843;48.838;9.324;2022-10-12T11:58:27;15.17;;;10.60;;
17451;SDS011;8843;48.838;9.324;2022-10-12T12:04:12;13.93;;;10.00;;
17451;SDS011;8843;48.838;9.324;2022-10-12T12:06:51;12.70;;;9.20;;
17451;SDS011;8843;48.838;9.324;2022-10-12T12:09:28;16.47;;;9.87;;
17451;SDS011;8843;48.838;9.324;2022-10-12T12:12:09;17.77;;;9.87;;
17451;SDS011;8843;48.838;9.324;2022-10-12T12:14:57;14.70;;;9.73;;
17451;SDS011;8843;48.838;9.324;2022-10-12T12:17:26;15.00;;;9.50;;
17451;SDS011;8843;48.838;9.324;2022-10-12T12:19:55;15.23;;;9.57;;
17451;SDS011;8843;48.838;9.324;2022-10-12T12:25:22;16.33;;;9.67;;
17451;SDS011;8843;48.838;9.324;2022-10-12T12:27:55;14.37;;;9.40;;
17451;SDS011;8843;48.838;9.324;2022-10-12T12:30:27;17.33;;;8.90;;
17451;SDS011;8843;48.838;9.324;2022-10-12T12:32:57;12.23;;;8.53;;
17451;SDS011;8843;48.838;9.324;2022-10-12T12:35:26;13.23;;;8.90;;
17451;SDS011;8843;48.838;9.324;2022-10-12T12:38:00;14.13;;;9.60;;
17451;SDS011;8843;48.838;9.324;2022-10-12T12:40:30;12.07;;;8.87;;
17451;SDS011;8843;48.838;9.324;2022-10-12T12:43:17;14.97;;;9.63;;
17451;SDS011;8843;48.838;9.324;2022-10-12T12:45:53;13.10;;;9.90;;
17451;SDS011;8843;48.838;9.324;2022-10-12T12:51:22;12.80;;;9.20;;
17451;SDS011;8843;48.838;9.324;2022-10-12T12:54:02;15.40;;;9.47;;
17451;SDS011;8843;48.838;9.324;2022-10-12T12:56:34;13.53;;;8.90;;
17451;SDS011;8843;48.838;9.324;2022-10-12T12:59:20;12.50;;;8.47;;
17451;SDS011;8843;48.838;9.324;2022-10-12T13:02:11;15.77;;;10.20;;
17451;SDS011;8843;48.838;9.324;2022-10-12T13:04:59;13.17;;;9.47;;
17451;SDS011;8843;48.838;9.324;2022-10-12T13:07:47;12.03;;;8.03;;
17451;SDS011;8843;48.838;9.324;2022-10-12T13:10:31;16.07;;;8.63;;
17451;SDS011;8843;48.838;9.324;2022-10-12T13:13:10;13.13;;;8.73;;
17451;SDS011;8843;48.838;9.324;2022-10-12T13:16:01;11.87;;;7.73;;
17451;SDS011;8843;48.838;9.324;2022-10-12T13:18:46;14.87;;;9.27;;
17451;SDS011;8843;48.838;9.324;2022-10-12T13:21:17;12.83;;;7.93;;
17451;SDS011;8843;48.838;9.324;2022-10-12T13:23:48;13.97;;;7.90;;
17451;SDS011;8843;48.838;9.324;2022-10-12T13:26:22;11.40;;;7.73;;
17451;SDS011;8843;48.838;9.324;2022-10-12T13:28:52;13.90;;;7.73;;
17451;SDS011;8843;48.838;9.324;2022-10-12T13:31:22;12.50;;;8.10;;
17451;SDS011;8843;48.838;9.324;2022-10-12T13:33:55;12.00;;;7.67;;
17451;SDS011;8843;48.838;9.324;2022-10-12T13:36:29;10.87;;;8.63;;
17451;SDS011;8843;48.838;9.324;2022-10-12T13:38:57;13.03;;;8.10;;
17451;SDS011;8843;48.838;9.324;2022-10-12T13:41:33;10.37;;;8.20;;
17451;SDS011;8843;48.838;9.324;2022-10-12T13:44:01;14.87;;;9.33;;
17451;SDS011;8843;48.838;9.324;2022-10-12T13:46:34;12.40;;;10.37;;
17451;SDS011;8843;48.838;9.324;2022-10-12T13:49:08;14.13;;;9.50;;
17451;SDS011;8843;48.838;9.324;2022-10-12T13:51:38;14.80;;;8.90;;
17451;SDS011;8843;48.838;9.324;2022-10-12T13:54:13;12.27;;;9.13;;
17451;SDS011;8843;48.838;9.324;2022-10-12T13:56:42;12.03;;;9.57;;
17451;SDS011;8843;48.838;9.324;2022-10-12T13:59:12;13.30;;;8.53;;
17451;SDS011;8843;48.838;9.324;2022-10-12T14:01:46;16.00;;;9.60;;
17451;SDS011;8843;48.838;9.324;2022-10-12T14:04:14;12.67;;;8.07;;
17451;SDS011;8843;48.838;9.324;2022-10-12T14:06:42;13.43;;;7.83;;
17451;SDS011;8843;48.838;9.324;2022-10-12T14:09:15;12.37;;;8.37;;
17451;SDS011;8843;48.838;9.324;2022-10-12T14:11:46;12.73;;;8.17;;
17451;SDS011;8843;48.838;9.324;2022-10-12T14:14:16;12.37;;;7.93;;
17451;SDS011;8843;48.838;9.324;2022-10-12T14:16:45;13.87;;;8.30;;
17451;SDS011;8843;48.838;9.324;2022-10-12T14:19:18;16.13;;;7.87;;
17451;SDS011;8843;48.838;9.324;2022-10-12T14:21:47;10.70;;;7.87;;
17451;SDS011;8843;48.838;9.324;2022-10-12T14:24:15;18.70;;;7.73;;
17451;SDS011;8843;48.838;9.324;2022-10-12T14:26:50;9.57;;;7.60;;
17451;SDS011;8843;48.838;9.324;2022-10-12T14:29:31;11.10;;;7.27;;
17451;SDS011;8843;48.838;9.324;2022-10-12T14:32:00;9.80;;;7.10;;
17451;SDS011;8843;48.838;9.324;2022-10-12T14:34:41;14.00;;;7.10;;
17451;SDS011;8843;48.838;9.324;2022-10-12T14:37:24;10.87;;;6.70;;
17451;SDS011;8843;48.838;9.324;2022-10-12T14:39:53;11.87;;;6.87;;
17451;SDS011;8843;48.838;9.324;2022-10-12T14:42:29;10.90;;;6.33;;
17451;SDS011;8843;48.838;9.324;2022-10-12T14:44:58;10.47;;;6.43;;
17451;SDS011;8843;48.838;9.324;2022-10-12T14:47:27;10.10;;;5.93;;
17451;SDS011;8843;48.838;9.324;2022-10-12T14:49:56;10.47;;;6.60;;
17451;SDS011;8843;48.838;9.324;2022-10-12T14:52:32;8.17;;;5.97;;
17451;SDS011;8843;48.838;9.324;2022-10-12T14:55:03;9.23;;;6.73;;
17451;SDS011;8843;48.838;9.324;2022-10-12T14:57:32;16.00;;;6.73;;
17451;SDS011;8843;48.838;9.324;2022-10-12T14:59:59;8.93;;;6.10;;
17451;SDS011;8843;48.838;9.324;2022-10-12T15:02:26;8.20;;;6.23;;
17451;SDS011;8843;48.838;9.324;2022-10-12T15:04:54;9.60;;;6.93;;
17451;SDS011;8843;48.838;9.324;2022-10-12T15:07:22;11.53;;;7.73;;
17451;SDS011;8843;48.838;9.324;2022-10-12T15:09:50;13.87;;;6.63;;
17451;SDS011;8843;48.838;9.324;2022-10-12T15:12:19;11.13;;;6.97;;
17451;SDS011;8843;48.838;9.324;2022-10-12T15:14:48;12.10;;;7.67;;
17451;SDS011;8843;48.838;9.324;2022-10-12T15:17:16;10.73;;;6.23;;
17451;SDS011;8843;48.838;9.324;2022-10-12T15:19:44;8.80;;;6.77;;
17451;SDS011;8843;48.838;9.324;2022-10-12T15:22:13;10.97;;;8.27;;
17451;SDS011;8843;48.838;9.324;2022-10-12T15:24:41;11.60;;;7.07;;